Time;durP1;ratioP1;P1;durP2;ratioP2;P2;SDS_P1;SDS_P2;PMS_P1;PMS_P2;Temp;Humidity;BMP_temperature;BMP_pressure;BME280_temperature;BME280_humidity;BME280_pressure;Samples;Min_cycle;Max_cycle;Signal;HPM_P1;HPM_P2
2022/12/30 00:01:10;;;;;;;1.60;1.08;;;5.60;99.90;;;;;;5007338;28;20057;-86
2022/12/30 00:03:57;;;;;;;0.97;0.90;;;5.60;99.90;;;;;;5021865;28;20377;-86
2022/12/30 00:06:47;;;;;;;0.98;0.77;;;5.60;99.90;;;;;;5033939;28;20053;-86
2022/12/30 00:09:34;;;;;;;1.02;0.80;;;5.60;99.90;;;;;;5019858;28;20038;-85
2022/12/30 00:34:11;;;;;;;1.00;0.88;;;5.70;99.90;;;;;;5016433;28;20114;-86
2022/12/30 00:37:03;;;;;;;2.53;1.10;;;5.70;99.90;;;;;;5024036;28;20050;-87
2022/12/30 00:39:50;;;;;;;2.60;1.00;;;5.70;99.90;;;;;;5009304;28;20048;-85
2022/12/30 00:45:44;;;;;;;2.40;0.82;;;5.70;99.90;;;;;;5027959;28;20057;-88
2022/12/30 00:57:52;;;;;;;2.30;1.75;;;5.70;99.90;;;;;;5024106;28;20122;-86
2022/12/30 01:00:41;;;;;;;2.45;1.35;;;5.70;99.90;;;;;;5010785;28;20074;-86
2022/12/30 01:03:28;;;;;;;1.27;0.70;;;5.60;99.90;;;;;;5025004;28;20054;-86
2022/12/30 01:06:16;;;;;;;2.60;0.70;;;5.60;99.90;;;;;;5021861;28;20066;-86
2022/12/30 01:09:03;;;;;;;1.38;0.82;;;5.60;99.90;;;;;;5029659;28;20042;-87
2022/12/30 01:12:09;;;;;;;1.40;0.98;;;5.50;99.90;;;;;;5014280;28;20128;-86
2022/12/30 01:14:56;;;;;;;1.40;0.77;;;5.50;99.90;;;;;;5013358;28;20471;-86
2022/12/30 01:17:44;;;;;;;1.40;0.75;;;5.50;99.90;;;;;;5011754;28;20042;-87
2022/12/30 01:20:31;;;;;;;1.80;0.90;;;5.50;99.90;;;;;;5019586;28;20057;-86
2022/12/30 01:23:18;;;;;;;1.58;0.90;;;5.40;99.90;;;;;;5007146;28;20179;-86
2022/12/30 01:26:09;;;;;;;1.70;1.00;;;5.50;99.90;;;;;;5009898;28;20082;-87
2022/12/30 01:28:56;;;;;;;1.67;1.00;;;5.50;99.90;;;;;;5010486;28;20184;-85
2022/12/30 01:31:46;;;;;;;1.10;1.00;;;5.50;99.90;;;;;;5010214;28;20052;-85
2022/12/30 01:34:34;;;;;;;1.80;1.10;;;5.50;99.90;;;;;;5024631;28;20106;-85
2022/12/30 01:37:23;;;;;;;4.10;1.27;;;5.50;99.90;;;;;;5008112;28;20054;-86
2022/12/30 01:40:13;;;;;;;3.05;0.75;;;5.50;99.90;;;;;;5017400;28;20135;-88
2022/12/30 01:43:00;;;;;;;1.83;0.80;;;5.50;99.90;;;;;;5021947;28;20046;-87
2022/12/30 01:45:51;;;;;;;4.65;0.90;;;5.40;99.90;;;;;;5026954;28;20133;-87
2022/12/30 01:48:38;;;;;;;3.08;1.10;;;5.40;99.90;;;;;;5031321;28;20046;-87
2022/12/30 01:51:29;;;;;;;1.48;1.17;;;5.30;99.90;;;;;;5027370;28;20137;-87
2022/12/30 01:54:18;;;;;;;1.35;1.15;;;5.30;99.90;;;;;;5010188;28;20042;-85
2022/12/30 01:57:07;;;;;;;1.20;0.90;;;5.20;99.90;;;;;;5023034;28;20045;-85
2022/12/30 01:59:55;;;;;;;1.75;1.00;;;5.20;99.90;;;;;;5019348;28;20143;-85
2022/12/30 02:02:42;;;;;;;1.52;1.20;;;5.10;99.90;;;;;;5015187;28;20042;-85
2022/12/30 02:05:37;;;;;;;1.17;1.05;;;5.10;99.90;;;;;;5016922;28;20050;-84
2022/12/30 02:08:25;;;;;;;1.58;1.10;;;5.10;99.90;;;;;;5016516;28;20041;-85
2022/12/30 02:11:13;;;;;;;2.90;1.10;;;5.10;99.90;;;;;;5015136;28;20061;-86
2022/12/30 02:14:01;;;;;;;2.67;1.00;;;5.00;99.90;;;;;;5016562;28;20046;-85
2022/12/30 02:17:04;;;;;;;1.08;0.90;;;5.00;99.90;;;;;;5014173;28;20060;-86
2022/12/30 02:20:07;;;;;;;1.27;1.05;;;5.10;99.90;;;;;;5016667;28;20070;-87
2022/12/30 02:23:44;;;;;;;1.10;0.95;;;5.00;99.90;;;;;;5006243;28;20111;-86
2022/12/30 02:26:53;;;;;;;1.48;0.90;;;5.00;99.90;;;;;;4960248;28;20043;-89
2022/12/30 02:29:58;;;;;;;1.13;0.80;;;4.90;99.90;;;;;;5027125;28;20041;-86
2022/12/30 02:33:18;;;;;;;2.92;0.90;;;4.90;99.90;;;;;;5027529;28;20045;-86
2022/12/30 02:36:20;;;;;;;2.20;0.80;;;4.90;99.90;;;;;;5015187;28;20069;-86
2022/12/30 02:39:27;;;;;;;1.30;0.88;;;4.90;99.90;;;;;;5017278;28;20042;-87
2022/12/30 02:45:51;;;;;;;1.48;0.75;;;4.90;99.90;;;;;;5012437;28;20037;-87
2022/12/30 02:48:42;;;;;;;1.20;1.08;;;4.90;99.90;;;;;;5013040;28;20042;-88
2022/12/30 02:54:46;;;;;;;1.65;0.90;;;4.80;99.90;;;;;;5016610;28;20038;-86
2022/12/30 02:57:35;;;;;;;0.90;0.82;;;4.70;99.90;;;;;;5015141;28;20124;-87
2022/12/30 03:04:06;;;;;;;2.45;1.10;;;4.70;99.90;;;;;;5012866;28;20559;-87
2022/12/30 03:07:12;;;;;;;2.13;0.93;;;4.60;99.90;;;;;;5013836;28;20052;-87
2022/12/30 03:13:53;;;;;;;;;;;4.40;99.90;;;;;;4953532;28;20048;-86
2022/12/30 03:16:49;;;;;;;1.48;1.20;;;4.50;99.90;;;;;;5016234;28;20319;-87
2022/12/30 03:19:42;;;;;;;6.32;2.70;;;4.50;99.90;;;;;;5015906;28;20049;-86
2022/12/30 03:28:47;;;;;;;1.73;1.10;;;4.30;99.90;;;;;;5013819;28;20045;-86
2022/12/30 03:31:34;;;;;;;1.53;0.93;;;4.20;99.90;;;;;;5015379;28;20057;-87
2022/12/30 03:34:26;;;;;;;1.58;0.88;;;4.10;99.90;;;;;;5015550;28;20041;-87
2022/12/30 03:37:16;;;;;;;1.50;0.82;;;4.00;99.90;;;;;;5010739;28;20123;-87
2022/12/30 03:40:12;;;;;;;1.00;0.90;;;4.00;99.90;;;;;;5005690;28;20081;-86
2022/12/30 03:43:05;;;;;;;1.35;1.00;;;4.00;99.90;;;;;;5004341;28;20050;-87
2022/12/30 03:45:54;;;;;;;1.27;1.00;;;4.00;99.90;;;;;;5003905;28;21171;-86
2022/12/30 03:48:43;;;;;;;1.92;0.90;;;4.00;99.90;;;;;;5015728;28;20061;-86
2022/12/30 03:51:31;;;;;;;0.77;0.77;;;4.00;99.90;;;;;;5013616;28;20045;-87
2022/12/30 03:54:18;;;;;;;1.98;0.88;;;4.00;99.90;;;;;;5015705;28;20367;-85
2022/12/30 03:57:05;;;;;;;1.33;0.95;;;4.00;99.90;;;;;;5014935;28;20061;-86
2022/12/30 03:59:53;;;;;;;1.10;1.00;;;4.00;99.90;;;;;;5012956;28;20127;-86
2022/12/30 04:02:40;;;;;;;1.58;1.10;;;4.00;99.90;;;;;;5012104;28;20042;-85
2022/12/30 04:05:27;;;;;;;1.50;0.75;;;4.00;99.90;;;;;;5014059;28;20053;-85
2022/12/30 04:08:18;;;;;;;1.85;1.08;;;3.90;99.90;;;;;;5014100;28;20104;-86
2022/12/30 04:11:08;;;;;;;2.00;0.95;;;3.90;99.90;;;;;;5006041;28;20176;-86
2022/12/30 04:13:55;;;;;;;1.13;1.02;;;3.90;99.90;;;;;;5014883;28;20056;-85
2022/12/30 04:16:42;;;;;;;3.28;1.33;;;3.80;99.90;;;;;;5013312;28;20042;-86
2022/12/30 04:19:30;;;;;;;3.30;1.20;;;3.80;99.90;;;;;;5008567;28;20073;-86
2022/12/30 04:22:18;;;;;;;2.15;0.90;;;3.90;99.90;;;;;;4984847;28;20046;-86
2022/12/30 04:25:05;;;;;;;2.45;1.17;;;4.00;99.90;;;;;;5013041;28;21808;-87
2022/12/30 04:27:52;;;;;;;2.88;1.20;;;4.00;99.90;;;;;;5014662;28;20408;-86
2022/12/30 04:30:42;;;;;;;2.55;0.77;;;4.10;99.90;;;;;;5011186;28;20371;-86
2022/12/30 04:33:33;;;;;;;0.93;0.80;;;4.00;99.90;;;;;;5011827;28;20038;-86
2022/12/30 04:36:22;;;;;;;0.75;0.75;;;3.90;99.90;;;;;;5013468;28;20108;-86
2022/12/30 04:39:09;;;;;;;2.78;1.00;;;3.90;99.90;;;;;;5019022;28;20124;-85
2022/12/30 04:41:57;;;;;;;0.70;0.70;;;4.00;99.90;;;;;;5020627;28;20050;-85
2022/12/30 04:44:53;;;;;;;1.65;0.75;;;4.00;99.90;;;;;;5024539;28;20042;-85
2022/12/30 04:47:41;;;;;;;0.60;0.60;;;4.00;99.90;;;;;;5028370;28;20069;-87
2022/12/30 04:50:28;;;;;;;0.85;0.85;;;4.00;99.90;;;;;;5017508;28;20045;-85
2022/12/30 04:53:15;;;;;;;1.33;0.90;;;4.00;99.90;;;;;;5010681;28;20123;-86
2022/12/30 04:56:06;;;;;;;1.55;0.80;;;4.00;99.90;;;;;;5012328;28;20293;-85
2022/12/30 04:58:54;;;;;;;2.67;0.80;;;4.00;99.90;;;;;;5012485;28;20132;-86
2022/12/30 05:01:41;;;;;;;2.75;1.00;;;4.00;99.90;;;;;;5013740;28;20057;-84
2022/12/30 05:04:38;;;;;;;0.77;0.70;;;4.10;99.90;;;;;;5013461;28;20045;-85
2022/12/30 05:07:26;;;;;;;0.60;0.60;;;4.10;99.90;;;;;;5003161;28;20119;-87
2022/12/30 05:10:13;;;;;;;1.70;1.00;;;4.10;99.90;;;;;;5018525;28;20057;-87
2022/12/30 05:13:00;;;;;;;0.80;0.80;;;4.00;99.90;;;;;;5018535;28;20112;-87
2022/12/30 05:15:48;;;;;;;1.02;0.93;;;3.90;99.90;;;;;;4999935;28;20045;-86
2022/12/30 05:18:35;;;;;;;1.73;1.08;;;4.00;99.90;;;;;;5018843;28;20045;-86
2022/12/30 05:21:24;;;;;;;1.20;1.10;;;4.00;99.90;;;;;;5017944;28;20042;-86
2022/12/30 05:27:17;;;;;;;1.10;0.80;;;4.00;99.90;;;;;;5018332;28;20042;-87
2022/12/30 05:30:05;;;;;;;1.17;0.98;;;4.00;99.90;;;;;;5015924;28;20089;-87
2022/12/30 05:32:55;;;;;;;0.68;0.68;;;4.00;99.90;;;;;;5015375;28;20050;-85
2022/12/30 05:35:47;;;;;;;0.88;0.77;;;4.00;99.90;;;;;;5017272;28;20072;-85
2022/12/30 05:38:41;;;;;;;0.88;0.85;;;4.10;99.90;;;;;;4999132;28;20061;-84
2022/12/30 05:41:28;;;;;;;1.02;0.70;;;4.10;99.90;;;;;;4997120;28;20361;-85
2022/12/30 05:44:16;;;;;;;0.77;0.73;;;4.10;99.90;;;;;;5016775;28;20065;-84
2022/12/30 05:47:03;;;;;;;0.70;0.70;;;4.10;99.90;;;;;;5004122;28;20049;-85
2022/12/30 05:49:53;;;;;;;0.70;0.70;;;4.10;99.90;;;;;;5012774;28;20065;-83
2022/12/30 05:52:40;;;;;;;0.85;0.70;;;4.00;99.90;;;;;;5021412;28;20456;-85
2022/12/30 05:55:27;;;;;;;3.55;1.02;;;4.00;99.90;;;;;;5003515;28;20117;-86
2022/12/30 05:58:23;;;;;;;0.68;0.68;;;3.90;99.90;;;;;;5014047;28;20057;-84
2022/12/30 06:01:10;;;;;;;0.80;0.80;;;3.80;99.90;;;;;;5026051;28;20053;-85
2022/12/30 06:03:57;;;;;;;1.23;0.80;;;3.80;99.90;;;;;;5000236;28;20137;-85
2022/12/30 06:06:47;;;;;;;1.27;1.00;;;3.80;99.90;;;;;;5016532;28;20038;-85
2022/12/30 06:09:36;;;;;;;1.33;1.10;;;3.80;99.90;;;;;;5007495;28;20140;-83
2022/12/30 06:12:25;;;;;;;1.38;0.90;;;3.80;99.90;;;;;;5019345;28;20072;-84
2022/12/30 06:15:13;;;;;;;1.10;0.70;;;3.70;99.90;;;;;;4993178;28;20049;-85
2022/12/30 06:18:00;;;;;;;2.70;0.82;;;3.70;99.90;;;;;;5005451;28;20120;-84
2022/12/30 06:20:48;;;;;;;0.85;0.80;;;3.70;99.90;;;;;;4996977;28;20128;-84
2022/12/30 06:23:35;;;;;;;1.40;0.77;;;3.70;99.90;;;;;;5016298;28;20062;-84
2022/12/30 06:26:24;;;;;;;2.38;0.82;;;3.70;99.90;;;;;;5016038;28;20383;-84
2022/12/30 06:29:12;;;;;;;0.75;0.75;;;3.60;99.90;;;;;;5015470;28;20049;-84
2022/12/30 06:31:59;;;;;;;0.82;0.70;;;3.50;99.90;;;;;;5016632;28;20096;-83
2022/12/30 06:34:46;;;;;;;2.92;1.42;;;3.40;99.90;;;;;;5013388;28;20147;-84
2022/12/30 06:37:33;;;;;;;1.98;1.20;;;3.30;99.90;;;;;;5018559;28;20061;-84
2022/12/30 06:40:23;;;;;;;2.40;1.30;;;3.30;99.90;;;;;;5020063;28;20142;-84
2022/12/30 06:43:11;;;;;;;2.05;1.50;;;3.30;99.90;;;;;;5006084;28;20061;-87
2022/12/30 06:46:20;;;;;;;3.10;1.70;;;3.40;99.90;;;;;;5006241;28;20121;-86
2022/12/30 06:49:24;;;;;;;;;;;3.30;99.90;;;;;;4990329;28;20046;-83
2022/12/30 06:52:33;;;;;;;;;;;3.30;99.90;;;;;;5006547;28;19921;-83
2022/12/30 06:56:23;;;;;;;;;;;;;;;;;;;;;
2022/12/30 06:59:57;;;;;;;2.90;2.25;;;3.10;99.90;;;;;;5012350;28;20172;-82
2022/12/30 07:03:04;;;;;;;2.70;2.10;;;3.10;99.90;;;;;;4911895;29;20054;-82
2022/12/30 07:06:02;;;;;;;;;;;;;;;;;;;;;
2022/12/30 07:09:34;;;;;;;3.22;2.20;;;3.00;99.90;;;;;;4972984;28;20075;-83
2022/12/30 07:13:28;;;;;;;2.20;1.90;;;3.10;99.90;;;;;;4960181;29;20130;-84
2022/12/30 07:20:24;;;;;;;2.08;1.67;;;2.90;99.90;;;;;;4953157;28;20192;-82
2022/12/30 07:23:32;;;;;;;2.17;1.70;;;3.00;99.90;;;;;;4982000;28;20072;-84
2022/12/30 07:27:19;;;;;;;3.22;1.70;;;3.10;99.90;;;;;;4949211;28;20039;-83
2022/12/30 07:30:23;;;;;;;3.35;2.42;;;3.20;99.90;;;;;;4942265;28;20059;-82
2022/12/30 07:33:24;;;;;;;4.32;3.05;;;3.20;99.90;;;;;;4980823;28;20053;-82
2022/12/30 07:36:30;;;;;;;5.05;3.53;;;3.20;99.90;;;;;;5007080;28;20045;-84
2022/12/30 07:39:29;;;;;;;5.50;3.55;;;3.10;99.90;;;;;;4999454;28;20038;-83
2022/12/30 07:42:40;;;;;;;4.18;2.92;;;3.20;99.90;;;;;;5007311;28;20451;-83
2022/12/30 07:46:05;;;;;;;3.90;2.45;;;3.20;99.90;;;;;;5012731;28;20054;-84
2022/12/30 07:49:26;;;;;;;3.28;2.70;;;3.20;99.90;;;;;;5020992;28;20045;-84
2022/12/30 07:53:17;;;;;;;;;;;;;;;;;;;;;
2022/12/30 07:57:04;;;;;;;;;;;;;;;;;;;;;
2022/12/30 08:00:25;;;;;;;3.60;2.60;;;3.30;99.90;;;;;;5011390;28;20049;-83
2022/12/30 08:03:50;;;;;;;6.15;2.72;;;3.40;99.90;;;;;;5011477;28;20042;-83
2022/12/30 08:07:01;;;;;;;2.15;1.92;;;3.40;99.90;;;;;;5013624;28;20045;-83
2022/12/30 08:10:26;;;;;;;6.20;2.50;;;3.50;99.90;;;;;;4999170;28;20041;-84
2022/12/30 08:46:58;;;;;;;;;;;;;;;;;;;;;
2022/12/30 08:50:57;;;;;;;2.25;1.70;;;4.60;99.90;;;;;;4773793;27;9180597;-86
2022/12/30 08:54:17;;;;;;;1.90;1.40;;;4.70;99.90;;;;;;5071812;28;20044;-83
2022/12/30 08:57:08;;;;;;;1.95;1.73;;;4.80;99.90;;;;;;5069565;28;20044;-83
2022/12/30 08:59:57;;;;;;;;;;;5.00;99.90;;;;;;5083389;28;20056;-83
2022/12/30 09:02:45;;;;;;;1.92;1.70;;;5.20;99.90;;;;;;5071295;28;19924;-83
2022/12/30 09:05:33;;;;;;;2.10;1.10;;;5.30;99.90;;;;;;5069370;28;20071;-84
2022/12/30 09:08:20;;;;;;;1.75;1.10;;;5.50;99.90;;;;;;5087154;28;20060;-84
2022/12/30 09:11:13;;;;;;;3.67;1.15;;;5.80;99.90;;;;;;5074930;28;20068;-84
2022/12/30 09:14:14;;;;;;;2.67;1.20;;;5.90;99.90;;;;;;5078725;28;20063;-84
2022/12/30 09:17:01;;;;;;;2.75;1.40;;;6.10;99.90;;;;;;5091896;28;20111;-85
2022/12/30 09:19:51;;;;;;;2.70;1.30;;;6.40;99.90;;;;;;5088643;28;20044;-83
2022/12/30 09:22:38;;;;;;;4.30;1.35;;;6.70;99.90;;;;;;5086538;28;20056;-84
2022/12/30 09:25:25;;;;;;;2.22;1.65;;;6.90;99.90;;;;;;5089801;28;20407;-83
2022/12/30 09:28:15;;;;;;;2.97;1.33;;;7.00;1.00;;;;;;5091099;28;20123;-84
2022/12/30 09:31:02;;;;;;;1.58;1.40;;;7.00;1.00;;;;;;5086748;28;20064;-84
2022/12/30 09:33:50;;;;;;;4.25;1.35;;;7.10;1.00;;;;;;5091022;28;20364;-84
2022/12/30 09:36:37;;;;;;;2.53;1.10;;;7.10;45.30;;;;;;5081993;28;20048;-84
2022/12/30 09:39:31;;;;;;;2.78;1.20;;;7.30;1.00;;;;;;5077285;28;20449;-85
2022/12/30 09:45:42;;;;;;;2.78;1.52;;;8.40;99.90;;;;;;5083669;28;20143;-82
2022/12/30 09:48:40;;;;;;;2.80;1.20;;;8.60;99.90;;;;;;5088420;28;20441;-83
2022/12/30 09:51:39;;;;;;;1.60;0.90;;;9.40;1.00;;;;;;5085537;28;20054;-85
2022/12/30 09:54:36;;;;;;;1.27;1.17;;;10.10;99.90;;;;;;5083339;28;20045;-85
2022/12/30 09:57:30;;;;;;;1.98;1.38;;;10.30;1.00;;;;;;5087325;28;20040;-84
2022/12/30 10:00:22;;;;;;;1.08;0.98;;;10.70;99.90;;;;;;5079013;28;20599;-85
2022/12/30 10:03:26;;;;;;;1.63;1.10;;;10.90;99.90;;;;;;5073804;28;20053;-84
2022/12/30 10:06:37;;;;;;;;;;;10.50;97.30;;;;;;5074733;28;20124;-85
2022/12/30 10:09:46;;;;;;;2.80;1.70;;;10.50;55.80;;;;;;5074399;28;19923;-85
2022/12/30 10:13:04;;;;;;;3.13;1.70;;;10.60;28.80;;;;;;5074578;28;20043;-84
2022/12/30 10:16:11;;;;;;;2.75;1.52;;;11.00;1.00;;;;;;5075245;28;20108;-85
2022/12/30 10:19:26;;;;;;;1.42;1.27;;;11.70;1.00;;;;;;5043748;28;20159;-85
2022/12/30 10:22:30;;;;;;;2.05;1.10;;;12.00;1.00;;;;;;5075747;28;20533;-84
2022/12/30 10:26:12;;;;;;;2.05;1.17;;;11.80;1.00;;;;;;5074771;28;20036;-86
2022/12/30 10:29:05;;;;;;;2.67;1.10;;;11.30;1.00;;;;;;5052740;28;20048;-84
2022/12/30 10:31:53;;;;;;;3.92;1.42;;;10.70;1.00;;;;;;5062203;28;20037;-84
2022/12/30 10:34:41;;;;;;;3.00;1.20;;;10.60;1.00;;;;;;5072018;28;20045;-84
2022/12/30 10:37:34;;;;;;;2.28;1.45;;;10.50;1.00;;;;;;5070521;28;20078;-84
2022/12/30 10:40:27;;;;;;;2.33;1.13;;;10.10;1.00;;;;;;5042859;28;20056;-84
2022/12/30 10:43:41;;;;;;;0.87;0.87;;;10.30;1.00;;;;;;5058105;28;20060;-84
2022/12/30 10:46:38;;;;;;;1.15;1.00;;;10.10;1.00;;;;;;5075749;28;20059;-84
2022/12/30 10:49:45;;;;;;;2.63;1.00;;;9.70;1.00;;;;;;5074754;28;20327;-84
2022/12/30 10:52:34;;;;;;;3.90;1.25;;;9.80;1.00;;;;;;5068758;28;20048;-83
2022/12/30 10:55:25;;;;;;;2.83;1.35;;;10.20;1.00;;;;;;5074342;28;20063;-84
2022/12/30 10:58:24;;;;;;;7.28;1.35;;;10.60;1.00;;;;;;5069150;28;20095;-85
2022/12/30 11:01:23;;;;;;;2.20;1.20;;;11.40;1.00;;;;;;5074170;28;20123;-84
2022/12/30 11:04:35;;;;;;;1.70;1.15;;;11.60;1.00;;;;;;5075075;28;20052;-87
2022/12/30 11:07:23;;;;;;;3.03;1.48;;;11.00;1.00;;;;;;5063798;28;20053;-84
2022/12/30 11:10:18;;;;;;;1.88;1.33;;;10.60;99.90;;;;;;5074884;28;20088;-85
2022/12/30 11:16:33;;;;;;;3.20;1.20;;;10.70;1.00;;;;;;5061638;28;20106;-84
2022/12/30 11:19:24;;;;;;;;;;;11.10;1.00;;;;;;5055515;28;20060;-84
2022/12/30 11:22:11;;;;;;;0.90;0.80;;;10.90;1.00;;;;;;5073781;28;19920;-84
2022/12/30 11:25:06;;;;;;;3.38;1.02;;;10.90;1.00;;;;;;5072801;28;20036;-84
2022/12/30 11:27:58;;;;;;;1.17;0.90;;;10.90;1.00;;;;;;5065845;28;20125;-85
2022/12/30 11:30:51;;;;;;;1.20;1.10;;;10.70;1.00;;;;;;5066049;28;20044;-84
2022/12/30 11:33:52;;;;;;;3.63;1.20;;;10.30;1.00;;;;;;5073376;28;20091;-84
2022/12/30 11:36:39;;;;;;;1.52;1.20;;;10.10;1.00;;;;;;5051523;28;20052;-85
2022/12/30 11:39:35;;;;;;;6.53;1.10;;;10.30;1.00;;;;;;5072922;28;20063;-83
2022/12/30 11:42:31;;;;;;;2.10;1.15;;;10.50;1.00;;;;;;5061727;28;20049;-84
2022/12/30 11:45:20;;;;;;;2.22;1.00;;;10.40;1.00;;;;;;5060002;28;20103;-83
2022/12/30 11:48:26;;;;;;;2.25;1.20;;;10.30;1.00;;;;;;5064488;28;20377;-82
2022/12/30 11:51:22;;;;;;;0.90;0.90;;;9.90;1.00;;;;;;5073207;28;20040;-84
2022/12/30 11:54:09;;;;;;;2.15;1.40;;;9.50;1.00;;;;;;5069132;28;20054;-84
2022/12/30 11:56:59;;;;;;;1.83;1.73;;;9.00;1.00;;;;;;5063419;28;20072;-84
2022/12/30 11:59:52;;;;;;;3.75;1.60;;;8.60;1.00;;;;;;5065447;28;20048;-83
2022/12/30 12:02:47;;;;;;;3.25;1.80;;;8.30;1.00;;;;;;5083053;28;20056;-86
2022/12/30 12:05:42;;;;;;;4.18;2.05;;;8.00;26.20;;;;;;5083689;28;20048;-84
2022/12/30 12:08:44;;;;;;;2.00;1.38;;;7.90;96.80;;;;;;5063558;28;20082;-83
2022/12/30 12:11:36;;;;;;;;;;;7.80;99.90;;;;;;5089913;28;20044;-86
2022/12/30 12:14:45;;;;;;;3.08;1.65;;;7.80;99.90;;;;;;5077578;28;19920;-84
2022/12/30 12:18:08;;;;;;;2.85;1.38;;;7.70;99.90;;;;;;5076878;28;20041;-84
2022/12/30 12:21:17;;;;;;;4.20;1.92;;;7.70;99.90;;;;;;5078214;28;20365;-84
2022/12/30 12:24:07;;;;;;;3.00;1.58;;;7.70;99.90;;;;;;5066383;28;20052;-83
2022/12/30 12:27:02;;;;;;;1.50;1.40;;;7.70;99.90;;;;;;5072512;28;20161;-85
2022/12/30 12:29:52;;;;;;;2.55;1.60;;;7.70;99.90;;;;;;5063484;28;20358;-84
2022/12/30 12:33:15;;;;;;;4.35;1.92;;;7.70;99.90;;;;;;5065346;28;20048;-83
2022/12/30 12:36:14;;;;;;;3.15;1.83;;;7.70;99.90;;;;;;5046851;28;20048;-83
2022/12/30 12:39:09;;;;;;;2.33;1.45;;;7.70;99.90;;;;;;5070369;28;20041;-83
2022/12/30 12:42:11;;;;;;;2.20;1.48;;;7.70;99.90;;;;;;5066630;28;20044;-82
2022/12/30 12:45:33;;;;;;;3.60;1.60;;;7.70;99.90;;;;;;5053340;28;20423;-83
2022/12/30 12:49:14;;;;;;;2.47;1.50;;;7.70;99.90;;;;;;5053388;28;20339;-82
2022/12/30 12:52:06;;;;;;;3.80;2.78;;;7.80;99.90;;;;;;5063576;28;20048;-84
2022/12/30 12:55:21;;;;;;;7.32;2.00;;;7.80;99.90;;;;;;5061778;28;20397;-84
2022/12/30 12:58:41;;;;;;;1.85;1.40;;;7.80;99.90;;;;;;5060757;28;20045;-83
2022/12/30 13:01:53;;;;;;;2.85;1.52;;;7.80;99.90;;;;;;5048675;28;20105;-84
2022/12/30 13:05:13;;;;;;;2.58;1.52;;;7.90;99.90;;;;;;5059569;28;20041;-85
2022/12/30 13:08:13;;;;;;;1.75;1.40;;;7.90;99.90;;;;;;5062530;28;20040;-84
2022/12/30 13:11:12;;;;;;;2.15;1.40;;;8.00;99.90;;;;;;5070672;28;20049;-82
2022/12/30 13:14:35;;;;;;;1.73;1.15;;;8.10;99.90;;;;;;5073712;28;20568;-84
2022/12/30 13:17:48;;;;;;;2.80;2.08;;;8.10;99.90;;;;;;5053888;28;20075;-85
2022/12/30 13:20:50;;;;;;;1.63;1.40;;;8.20;99.90;;;;;;5073097;28;20128;-83
2022/12/30 13:23:45;;;;;;;3.83;1.27;;;8.30;99.90;;;;;;5058995;28;20041;-84
2022/12/30 13:26:38;;;;;;;2.35;1.38;;;8.40;99.90;;;;;;5059141;28;20048;-84
2022/12/30 13:29:32;;;;;;;4.40;1.40;;;8.40;99.90;;;;;;5073679;28;20063;-85
2022/12/30 13:32:35;;;;;;;1.58;1.30;;;8.40;99.90;;;;;;5056095;28;20048;-83
2022/12/30 13:35:56;;;;;;;1.40;1.10;;;8.30;99.90;;;;;;5061303;28;20037;-84
2022/12/30 13:39:12;;;;;;;2.33;1.10;;;8.20;99.90;;;;;;5073415;28;20101;-84
2022/12/30 13:42:27;;;;;;;4.75;1.85;;;8.20;99.90;;;;;;5077034;28;20139;-84
2022/12/30 13:45:27;;;;;;;2.03;1.40;;;8.20;99.90;;;;;;5072553;28;20049;-84
2022/12/30 13:48:22;;;;;;;2.42;1.40;;;8.20;99.90;;;;;;5056236;28;20049;-84
2022/12/30 13:51:19;;;;;;;2.35;1.63;;;8.20;99.90;;;;;;5060456;28;20462;-84
2022/12/30 13:54:19;;;;;;;1.60;1.40;;;8.10;99.90;;;;;;5075273;28;20044;-85
2022/12/30 13:57:27;;;;;;;1.70;1.60;;;8.10;1.00;;;;;;5063116;28;20051;-83
2022/12/30 14:00:26;;;;;;;2.33;1.73;;;8.10;1.00;;;;;;5067981;28;20049;-83
2022/12/30 14:03:34;;;;;;;2.25;1.88;;;8.10;99.90;;;;;;5063698;28;20131;-84
2022/12/30 14:06:27;;;;;;;4.97;3.65;;;8.10;1.00;;;;;;5076987;28;20052;-83
2022/12/30 14:09:26;;;;;;;3.90;2.75;;;7.90;1.00;;;;;;5077530;28;20098;-85
2022/12/30 14:12:39;;;;;;;5.22;4.05;;;7.90;1.00;;;;;;5054667;28;20071;-84
2022/12/30 14:15:42;;;;;;;10.13;4.93;;;7.90;1.00;;;;;;5044863;28;20453;-85
2022/12/30 14:18:44;;;;;;;9.70;4.70;;;7.80;75.30;;;;;;5072609;28;20103;-84
2022/12/30 14:21:51;;;;;;;10.63;6.35;;;7.70;99.90;;;;;;5055816;28;20098;-84
2022/12/30 14:24:41;;;;;;;12.93;6.65;;;7.70;99.90;;;;;;5059009;28;20072;-83
2022/12/30 14:27:44;;;;;;;13.98;7.32;;;7.70;99.90;;;;;;5064467;28;20036;-86
2022/12/30 14:30:54;;;;;;;14.95;8.13;;;7.60;1.00;;;;;;5068968;28;20060;-83
2022/12/30 14:33:48;;;;;;;15.23;8.30;;;7.70;1.00;;;;;;5064249;28;20040;-85
2022/12/30 14:36:38;;;;;;;18.73;8.45;;;7.60;1.00;;;;;;5064271;28;20041;-84
2022/12/30 14:39:30;;;;;;;14.27;8.32;;;7.60;1.00;;;;;;5080981;28;20032;-83
2022/12/30 14:42:27;;;;;;;14.07;8.48;;;7.60;1.00;;;;;;5078799;28;20539;-87
2022/12/30 14:45:29;;;;;;;18.02;9.55;;;7.60;1.00;;;;;;5076588;28;20049;-86
2022/12/30 14:48:54;;;;;;;15.57;8.75;;;7.60;80.00;;;;;;5070015;28;20068;-83
2022/12/30 14:51:44;;;;;;;16.30;8.68;;;7.50;99.90;;;;;;5062785;28;20080;-85
2022/12/30 14:54:54;;;;;;;18.23;7.65;;;7.50;99.90;;;;;;5067820;28;20044;-84
2022/12/30 14:57:47;;;;;;;19.17;9.48;;;7.50;1.00;;;;;;5052043;28;20045;-84
2022/12/30 15:00:36;;;;;;;15.27;9.52;;;7.50;1.00;;;;;;5071294;28;20051;-84
2022/12/30 15:03:23;;;;;;;14.07;8.25;;;7.50;99.90;;;;;;5062016;28;20041;-83
2022/12/30 15:06:14;;;;;;;13.95;7.28;;;7.50;99.90;;;;;;5071581;28;20355;-85
2022/12/30 15:09:07;;;;;;;8.82;5.47;;;7.60;99.90;;;;;;5053791;28;20075;-84
2022/12/30 15:12:02;;;;;;;8.10;4.68;;;7.80;99.90;;;;;;5064051;28;20058;-84
2022/12/30 15:14:55;;;;;;;5.88;3.85;;;7.80;93.40;;;;;;5073925;28;20076;-85
2022/12/30 15:17:45;;;;;;;6.30;3.85;;;7.90;1.00;;;;;;5059829;28;20052;-88
2022/12/30 15:20:33;;;;;;;4.70;3.38;;;7.90;1.00;;;;;;5059620;28;20330;-85
2022/12/30 15:23:33;;;;;;;5.15;3.10;;;7.90;1.00;;;;;;5064095;28;20048;-85
2022/12/30 15:26:20;;;;;;;3.20;2.42;;;8.10;1.00;;;;;;5071429;28;20044;-84
2022/12/30 15:29:29;;;;;;;4.68;2.40;;;8.20;99.90;;;;;;5064987;28;20127;-85
2022/12/30 15:32:27;;;;;;;3.08;1.90;;;8.20;99.90;;;;;;5058286;28;20052;-84
2022/12/30 15:35:24;;;;;;;1.95;1.75;;;8.40;99.90;;;;;;5068630;28;20135;-85
2022/12/30 15:38:14;;;;;;;2.70;2.28;;;8.40;27.20;;;;;;5063646;28;20124;-83
2022/12/30 15:41:13;;;;;;;3.45;1.55;;;8.40;1.00;;;;;;5057042;28;20098;-85
2022/12/30 15:44:06;;;;;;;3.67;1.52;;;8.40;1.00;;;;;;5050494;28;20468;-86
2022/12/30 15:46:57;;;;;;;2.83;1.40;;;8.40;1.00;;;;;;5073942;28;20037;-86
2022/12/30 15:49:50;;;;;;;1.45;1.35;;;8.40;7.80;;;;;;5066385;28;20398;-86
2022/12/30 15:52:40;;;;;;;3.22;1.30;;;8.40;94.40;;;;;;5071988;28;20144;-85
2022/12/30 15:55:42;;;;;;;1.42;1.33;;;8.30;99.90;;;;;;5040470;28;20045;-84
2022/12/30 15:58:39;;;;;;;1.40;1.30;;;8.40;99.90;;;;;;5069267;28;20056;-84
2022/12/30 16:01:39;;;;;;;1.67;1.40;;;8.50;99.90;;;;;;5066681;28;20067;-86
2022/12/30 16:04:33;;;;;;;2.65;1.60;;;8.40;99.90;;;;;;5058065;28;20051;-85
2022/12/30 16:07:26;;;;;;;1.58;1.48;;;8.40;99.90;;;;;;5073631;28;20106;-87
2022/12/30 16:10:29;;;;;;;1.60;1.50;;;8.50;99.90;;;;;;5061793;28;20044;-88
2022/12/30 16:13:32;;;;;;;1.55;1.42;;;8.60;76.80;;;;;;5074674;28;20044;-86
2022/12/30 16:16:30;;;;;;;1.88;1.77;;;8.60;14.20;;;;;;5071625;28;20140;-85
2022/12/30 16:19:20;;;;;;;2.83;1.50;;;8.70;1.00;;;;;;5056130;28;20467;-84
2022/12/30 16:22:24;;;;;;;;;;;8.80;1.00;;;;;;5060325;28;20052;-85
2022/12/30 16:25:34;;;;;;;2.58;1.40;;;8.80;1.00;;;;;;5059114;28;19924;-86
2022/12/30 16:28:36;;;;;;;1.30;1.20;;;8.80;1.00;;;;;;5064692;28;20541;-84
2022/12/30 16:31:26;;;;;;;1.40;1.30;;;8.80;1.00;;;;;;5067429;28;20083;-85
2022/12/30 16:34:18;;;;;;;1.85;1.30;;;8.80;99.90;;;;;;5059282;28;20637;-83
2022/12/30 16:37:31;;;;;;;0.90;0.90;;;8.80;99.90;;;;;;5057391;28;20420;-83
2022/12/30 16:40:40;;;;;;;2.08;1.52;;;8.80;99.90;;;;;;5067530;28;20054;-86
2022/12/30 16:43:27;;;;;;;1.48;1.38;;;8.80;99.90;;;;;;5066428;28;20473;-84
2022/12/30 16:46:17;;;;;;;1.88;1.50;;;8.80;99.90;;;;;;5066336;28;20045;-85
2022/12/30 16:49:05;;;;;;;2.40;1.73;;;8.80;99.90;;;;;;5055408;28;20048;-88
2022/12/30 16:51:53;;;;;;;1.30;1.25;;;8.80;99.90;;;;;;5072706;28;20437;-87
2022/12/30 16:54:40;;;;;;;2.28;1.65;;;8.90;99.90;;;;;;5069063;28;20061;-85
2022/12/30 16:57:28;;;;;;;1.77;1.48;;;8.90;99.90;;;;;;5068303;28;20044;-84
2022/12/30 17:00:18;;;;;;;1.60;1.50;;;8.70;1.00;;;;;;5057519;28;20059;-85
2022/12/30 17:03:29;;;;;;;1.98;1.58;;;8.50;99.90;;;;;;5059890;28;20048;-85
2022/12/30 17:06:17;;;;;;;1.70;1.60;;;8.30;1.00;;;;;;5056097;28;20571;-84
2022/12/30 17:09:04;;;;;;;1.45;1.30;;;8.30;1.00;;;;;;5054850;28;20044;-86
2022/12/30 17:11:54;;;;;;;1.63;1.45;;;8.30;99.90;;;;;;5060008;28;20125;-86
2022/12/30 17:14:41;;;;;;;2.05;1.63;;;8.30;1.00;;;;;;5063920;28;20199;-84
2022/12/30 17:17:29;;;;;;;3.70;1.95;;;8.30;1.00;;;;;;5068349;28;20036;-86
2022/12/30 17:20:25;;;;;;;3.60;1.50;;;8.40;6.50;;;;;;5077486;28;20036;-85
2022/12/30 17:23:34;;;;;;;1.63;1.45;;;8.40;67.20;;;;;;5060799;28;20067;-87
2022/12/30 17:26:23;;;;;;;1.55;1.38;;;8.50;1.00;;;;;;5056848;28;20048;-85